createdAt,value
2019-04-30T00:00:06.195Z,9.87
2019-04-30T00:02:41.766Z,9.83
2019-04-30T00:05:17.071Z,9.84
2019-04-30T00:07:42.681Z,9.84
2019-04-30T00:10:12.126Z,9.85
2019-04-30T00:12:41.639Z,9.82
2019-04-30T00:15:17.854Z,9.84
2019-04-30T00:17:41.968Z,9.83
2019-04-30T00:20:35.180Z,9.89
2019-04-30T00:23:05.046Z,9.85
2019-04-30T00:25:35.183Z,9.84
2019-04-30T00:28:08.598Z,9.84
2019-04-30T00:30:39.270Z,9.86
2019-04-30T00:33:07.223Z,9.82
2019-04-30T00:35:38.179Z,9.86
2019-04-30T00:38:07.479Z,9.83
2019-04-30T00:40:36.784Z,9.81
2019-04-30T00:43:09.018Z,9.81
2019-04-30T00:45:40.069Z,9.81
2019-04-30T00:48:09.684Z,9.81
2019-04-30T00:50:39.141Z,9.85
2019-04-30T00:53:12.375Z,9.85
2019-04-30T00:55:44.349Z,9.82
2019-04-30T00:58:11.836Z,9.79
2019-04-30T01:00:45.555Z,9.80
2019-04-30T01:03:16.817Z,9.81
2019-04-30T01:05:47.935Z,9.83
2019-04-30T01:08:21.198Z,9.82
2019-04-30T01:10:48.453Z,9.83
2019-04-30T01:13:19.271Z,9.83
2019-04-30T01:15:52.279Z,9.83
2019-04-30T01:18:23.552Z,9.81
2019-04-30T01:20:51.213Z,9.84
2019-04-30T01:23:20.696Z,9.84
2019-04-30T01:25:51.469Z,9.85
2019-04-30T01:28:24.290Z,9.84
2019-04-30T01:30:53.863Z,9.85
2019-04-30T01:33:23.471Z,9.84
2019-04-30T01:35:52.772Z,9.80
2019-04-30T01:38:22.051Z,9.86
2019-04-30T01:40:51.677Z,9.85
2019-04-30T01:43:30.448Z,9.86
2019-04-30T01:45:52.021Z,9.83
2019-04-30T01:48:21.401Z,9.84
2019-04-30T01:50:52.220Z,9.81
2019-04-30T01:53:22.173Z,9.82
2019-04-30T01:56:09.146Z,9.86
2019-04-30T01:58:46.262Z,9.83
2019-04-30T02:01:20.200Z,9.79
2019-04-30T02:03:49.701Z,9.81
2019-04-30T02:06:19.987Z,9.81
2019-04-30T02:08:49.494Z,9.83
2019-04-30T02:11:19.091Z,9.83
2019-04-30T02:13:49.319Z,9.77
2019-04-30T02:16:20.986Z,9.76
2019-04-30T02:18:49.802Z,9.72
2019-04-30T02:21:19.632Z,9.77
2019-04-30T02:23:50.022Z,9.74
2019-04-30T02:26:19.547Z,9.78
2019-04-30T02:28:49.493Z,9.73
2019-04-30T02:31:22.736Z,9.78
2019-04-30T02:33:51.629Z,9.75
2019-04-30T02:36:40.420Z,9.74
2019-04-30T02:39:11.132Z,9.77
2019-04-30T02:41:41.209Z,9.73
2019-04-30T02:44:11.704Z,9.79
2019-04-30T02:46:42.533Z,9.80
2019-04-30T02:49:12.626Z,9.75
2019-04-30T02:51:44.774Z,9.79
2019-04-30T02:54:23.827Z,9.77
2019-04-30T02:56:54.400Z,9.76
2019-04-30T02:59:23.678Z,9.73
2019-04-30T03:01:53.005Z,9.79
2019-04-30T03:04:22.308Z,9.76
2019-04-30T03:06:51.572Z,9.77
2019-04-30T03:09:20.880Z,9.80
2019-04-30T03:11:50.388Z,9.77
2019-04-30T03:14:20.302Z,9.75
2019-04-30T03:16:53.239Z,9.72
2019-04-30T03:19:24.107Z,9.74
2019-04-30T03:21:55.969Z,9.72
2019-04-30T03:24:29.412Z,9.73
2019-04-30T03:26:59.388Z,9.70
2019-04-30T03:29:30.352Z,9.73
2019-04-30T03:32:02.548Z,9.73
2019-04-30T03:34:32.507Z,9.71
2019-04-30T03:37:02.365Z,9.70
2019-04-30T03:39:33.951Z,9.69
2019-04-30T03:42:02.847Z,9.66
2019-04-30T03:44:32.656Z,9.70
2019-04-30T03:47:02.100Z,9.75
2019-04-30T03:49:31.438Z,9.68
2019-04-30T03:52:00.752Z,9.66
2019-04-30T03:54:30.050Z,9.72
2019-04-30T03:57:01.079Z,9.71
2019-04-30T03:59:30.618Z,9.74
2019-04-30T04:02:01.558Z,9.73
2019-04-30T04:04:52.532Z,9.66
2019-04-30T04:07:23.559Z,9.69
2019-04-30T04:10:10.143Z,9.65
2019-04-30T04:12:39.777Z,9.65
2019-04-30T04:15:10.445Z,9.63
2019-04-30T04:17:40.159Z,9.61
2019-04-30T04:20:10.579Z,9.65
2019-04-30T04:22:40.525Z,9.67
2019-04-30T04:25:13.281Z,9.67
2019-04-30T04:27:41.678Z,9.70
2019-04-30T04:30:11.054Z,9.76
2019-04-30T04:32:40.921Z,9.73
2019-04-30T04:35:12.815Z,9.69
2019-04-30T04:37:42.944Z,9.68
2019-04-30T04:40:12.616Z,9.70
2019-04-30T04:42:43.008Z,9.74
2019-04-30T04:45:12.383Z,9.71
2019-04-30T04:47:41.795Z,9.76
2019-04-30T04:50:12.330Z,9.75
2019-04-30T04:52:41.636Z,9.74
2019-04-30T04:55:11.382Z,9.76
2019-04-30T04:57:40.681Z,9.77
2019-04-30T05:00:10.880Z,9.76
2019-04-30T05:02:44.769Z,9.76
2019-04-30T05:05:14.113Z,9.75
2019-04-30T05:07:43.414Z,9.76
2019-04-30T05:10:13.277Z,9.78
2019-04-30T05:12:42.572Z,9.78
2019-04-30T05:15:12.121Z,9.76
2019-04-30T05:17:41.605Z,9.79
2019-04-30T05:20:11.105Z,9.74
2019-04-30T05:22:40.485Z,9.74
2019-04-30T05:25:10.478Z,9.80
2019-04-30T05:27:39.768Z,9.86
2019-04-30T05:30:12.035Z,9.84
2019-04-30T05:32:40.715Z,9.94
2019-04-30T05:35:10.967Z,9.87
2019-04-30T05:37:40.345Z,9.92
2019-04-30T05:40:09.886Z,9.98
2019-04-30T05:42:39.357Z,10.03
2019-04-30T05:45:09.516Z,10.05
2019-04-30T05:47:39.115Z,10.10
2019-04-30T05:50:08.911Z,10.10
2019-04-30T05:52:39.836Z,10.08
2019-04-30T05:55:09.661Z,10.19
2019-04-30T05:57:52.691Z,10.29
2019-04-30T06:00:10.580Z,10.35
2019-04-30T06:02:40.953Z,10.40
2019-04-30T06:05:10.300Z,10.61
2019-04-30T06:07:39.677Z,10.73
2019-04-30T06:10:19.547Z,10.86
2019-04-30T06:13:02.540Z,10.87
2019-04-30T06:15:36.700Z,10.97
2019-04-30T06:18:12.930Z,11.06
2019-04-30T06:20:38.619Z,11.11
2019-04-30T06:23:09.536Z,11.13
2019-04-30T06:25:55.641Z,11.14
2019-04-30T06:28:10.164Z,11.17
2019-04-30T06:30:39.749Z,11.10
2019-04-30T06:33:11.696Z,11.11
2019-04-30T06:35:40.355Z,11.25
2019-04-30T06:38:09.879Z,11.30
2019-04-30T06:40:39.219Z,11.60
2019-04-30T06:43:09.174Z,11.57
2019-04-30T06:45:38.972Z,11.76
2019-04-30T06:48:10.562Z,12.00
2019-04-30T06:50:39.847Z,12.25
2019-04-30T06:53:09.484Z,12.35
2019-04-30T06:55:39.382Z,12.31
2019-04-30T06:58:15.080Z,12.20
2019-04-30T07:00:40.536Z,11.81
2019-04-30T07:03:10.038Z,11.64
2019-04-30T07:05:39.532Z,11.26
2019-04-30T07:08:38.904Z,11.67
2019-04-30T07:11:16.105Z,11.77
2019-04-30T07:13:47.221Z,11.74
2019-04-30T07:16:18.854Z,11.92
2019-04-30T07:18:48.922Z,11.94
2019-04-30T07:21:19.780Z,11.84
2019-04-30T07:23:50.566Z,11.82
2019-04-30T07:26:24.316Z,11.68
2019-04-30T07:28:54.810Z,11.37
2019-04-30T07:31:22.113Z,11.56
2019-04-30T07:33:53.854Z,11.72
2019-04-30T07:36:23.542Z,11.80
2019-04-30T07:38:56.576Z,12.01
2019-04-30T07:41:24.843Z,11.63
2019-04-30T07:43:54.729Z,11.50
2019-04-30T07:46:24.125Z,11.43
2019-04-30T07:48:53.496Z,11.31
2019-04-30T07:51:23.483Z,11.34
2019-04-30T07:53:53.370Z,11.27
2019-04-30T07:56:27.852Z,11.30
2019-04-30T07:58:53.695Z,11.59
2019-04-30T08:01:23.004Z,11.77
2019-04-30T08:04:03.612Z,11.83
2019-04-30T08:06:34.559Z,12.08
2019-04-30T08:09:05.935Z,11.99
2019-04-30T08:11:41.682Z,11.88
2019-04-30T08:14:06.913Z,11.87
2019-04-30T08:16:38.610Z,11.87
2019-04-30T08:19:10.392Z,11.83
2019-04-30T08:21:39.794Z,11.72
2019-04-30T08:24:09.355Z,11.91
2019-04-30T08:26:39.783Z,11.70
2019-04-30T08:29:09.681Z,11.72
2019-04-30T08:31:40.923Z,11.79
2019-04-30T08:34:11.040Z,11.85
2019-04-30T08:36:40.595Z,11.78
2019-04-30T08:39:09.936Z,11.70
2019-04-30T08:41:39.400Z,11.88
2019-04-30T08:44:09.933Z,11.80
2019-04-30T08:46:39.991Z,11.81
2019-04-30T08:49:11.297Z,11.65
2019-04-30T08:51:41.145Z,11.57
2019-04-30T08:54:10.533Z,11.43
2019-04-30T08:56:39.830Z,11.57
2019-04-30T08:59:11.228Z,11.41
2019-04-30T09:01:40.173Z,11.23
2019-04-30T09:04:10.459Z,11.27
2019-04-30T09:06:40.172Z,11.41
2019-04-30T09:09:12.356Z,11.35
2019-04-30T09:11:53.121Z,11.46
2019-04-30T09:14:14.420Z,11.33
2019-04-30T09:16:44.063Z,11.38
2019-04-30T09:19:15.171Z,11.56
2019-04-30T09:21:44.485Z,11.77
2019-04-30T09:24:13.867Z,11.74
2019-04-30T09:26:43.225Z,11.71
2019-04-30T09:29:12.547Z,11.70
2019-04-30T09:31:41.875Z,11.64
2019-04-30T09:34:17.145Z,11.64
2019-04-30T09:36:42.613Z,11.61
2019-04-30T09:39:13.063Z,11.49
2019-04-30T09:41:43.690Z,11.49
2019-04-30T09:44:13.165Z,11.56
2019-04-30T09:46:42.501Z,11.59
2019-04-30T09:49:11.905Z,11.45
2019-04-30T09:51:41.464Z,11.54
2019-04-30T09:54:12.523Z,11.47
2019-04-30T09:56:42.262Z,11.45
2019-04-30T09:59:11.576Z,11.56
2019-04-30T10:01:41.055Z,11.67
2019-04-30T10:04:10.964Z,11.81
2019-04-30T10:06:40.804Z,11.96
2019-04-30T10:09:11.799Z,12.07
2019-04-30T10:11:59.568Z,12.06
2019-04-30T10:14:29.234Z,12.18
2019-04-30T10:17:00.315Z,11.92
2019-04-30T10:19:29.623Z,12.01
2019-04-30T10:21:59.084Z,12.02
2019-04-30T10:24:29.451Z,12.13
2019-04-30T10:26:59.552Z,12.46
2019-04-30T10:29:29.273Z,12.41
2019-04-30T10:31:59.656Z,12.41
2019-04-30T10:34:28.966Z,12.49
2019-04-30T10:37:02.821Z,12.58
2019-04-30T10:39:31.054Z,12.69
2019-04-30T10:42:00.409Z,12.80
2019-04-30T10:44:29.933Z,12.69
2019-04-30T10:46:59.852Z,12.71
2019-04-30T10:49:30.679Z,12.60
2019-04-30T10:52:01.169Z,12.22
2019-04-30T10:54:30.822Z,12.17
2019-04-30T10:57:00.118Z,12.00
2019-04-30T10:59:29.419Z,11.86
2019-04-30T11:01:59.250Z,11.94
2019-04-30T11:04:28.637Z,12.06
2019-04-30T11:07:00.151Z,12.15
2019-04-30T11:09:31.043Z,12.28
2019-04-30T11:12:03.074Z,12.30
2019-04-30T11:14:31.676Z,12.06
2019-04-30T11:17:01.312Z,12.10
2019-04-30T11:19:31.159Z,12.02
2019-04-30T11:22:00.884Z,12.11
2019-04-30T11:24:36.408Z,12.09
2019-04-30T11:27:02.193Z,12.10
2019-04-30T11:29:32.069Z,12.18
2019-04-30T11:32:07.629Z,12.10
2019-04-30T11:34:37.094Z,12.11
2019-04-30T11:37:06.399Z,12.24
2019-04-30T11:39:35.801Z,12.06
2019-04-30T11:42:05.587Z,12.23
2019-04-30T11:44:34.901Z,12.43
2019-04-30T11:47:24.431Z,12.61
2019-04-30T11:49:53.915Z,12.65
2019-04-30T11:52:24.795Z,12.22
2019-04-30T11:54:55.262Z,12.27
2019-04-30T11:57:25.275Z,12.24
2019-04-30T11:59:54.659Z,12.35
2019-04-30T12:02:26.048Z,12.50
2019-04-30T12:04:55.507Z,12.67
2019-04-30T12:07:33.804Z,12.35
2019-04-30T12:10:05.235Z,12.36
2019-04-30T12:12:34.551Z,12.49
2019-04-30T12:15:05.970Z,12.45
2019-04-30T12:17:35.724Z,12.74
2019-04-30T12:20:08.609Z,13.07
2019-04-30T12:22:39.685Z,13.18
2019-04-30T12:25:09.999Z,13.40
2019-04-30T12:27:39.432Z,13.35
2019-04-30T12:30:09.505Z,13.32
2019-04-30T12:32:39.315Z,13.53
2019-04-30T12:35:08.871Z,13.33
2019-04-30T12:37:39.062Z,13.66
2019-04-30T12:40:09.533Z,13.91
2019-04-30T12:42:39.729Z,13.83
2019-04-30T12:45:09.551Z,13.50
2019-04-30T12:47:40.773Z,13.51
2019-04-30T12:50:16.142Z,13.83
2019-04-30T12:52:53.132Z,13.73
2019-04-30T12:55:29.265Z,13.99
2019-04-30T12:58:01.686Z,13.79
2019-04-30T13:00:31.306Z,13.83
2019-04-30T13:03:00.658Z,13.86
2019-04-30T13:05:29.982Z,13.79
2019-04-30T13:08:00.439Z,13.35
2019-04-30T13:10:30.586Z,13.42
2019-04-30T13:13:00.589Z,13.70
2019-04-30T13:15:30.273Z,14.05
2019-04-30T13:17:59.550Z,13.99
2019-04-30T13:20:29.443Z,14.35
2019-04-30T13:22:58.967Z,14.22
2019-04-30T13:25:35.338Z,14.31
2019-04-30T13:28:02.854Z,14.54
2019-04-30T13:30:33.834Z,14.45
2019-04-30T13:33:04.849Z,14.16
2019-04-30T13:35:34.643Z,13.86
2019-04-30T13:38:05.569Z,14.11
2019-04-30T13:40:42.601Z,13.95
2019-04-30T13:43:13.660Z,13.80
2019-04-30T13:45:42.967Z,13.47
2019-04-30T13:48:12.262Z,13.24
2019-04-30T13:50:41.612Z,12.94
2019-04-30T13:53:10.942Z,13.09
2019-04-30T13:55:45.681Z,12.83
2019-04-30T13:58:12.237Z,12.88
2019-04-30T14:00:41.648Z,12.94
2019-04-30T14:03:13.622Z,12.73
2019-04-30T14:05:43.005Z,12.71
2019-04-30T14:08:21.898Z,12.64
2019-04-30T14:10:51.347Z,12.47
2019-04-30T14:13:21.437Z,12.64
2019-04-30T14:15:52.512Z,12.53
2019-04-30T14:18:28.311Z,12.75
2019-04-30T14:20:53.134Z,12.49
2019-04-30T14:23:22.431Z,12.52
2019-04-30T14:25:56.789Z,12.46
2019-04-30T14:28:22.833Z,12.47
2019-04-30T14:30:52.149Z,12.75
2019-04-30T14:33:26.321Z,12.69
2019-04-30T14:35:52.552Z,12.57
2019-04-30T14:38:21.858Z,12.57
2019-04-30T14:40:51.867Z,12.55
2019-04-30T14:43:30.360Z,12.76
2019-04-30T14:46:20.442Z,12.70
2019-04-30T14:48:51.868Z,12.74
2019-04-30T14:51:21.653Z,12.59
2019-04-30T14:53:53.431Z,12.56
2019-04-30T14:56:33.477Z,12.48
2019-04-30T14:59:04.462Z,12.42
2019-04-30T15:01:35.655Z,12.51
2019-04-30T15:04:04.961Z,12.65
2019-04-30T15:06:34.273Z,12.77
2019-04-30T15:09:06.436Z,12.71
2019-04-30T15:11:38.611Z,12.53
2019-04-30T15:14:07.704Z,12.37
2019-04-30T15:16:37.051Z,12.27
2019-04-30T15:19:06.587Z,12.11
2019-04-30T15:21:35.899Z,12.24
2019-04-30T15:24:09.352Z,12.33
2019-04-30T15:26:41.220Z,12.24
2019-04-30T15:29:13.357Z,12.32
2019-04-30T15:31:42.637Z,12.41
2019-04-30T15:34:13.580Z,12.13
2019-04-30T15:36:42.982Z,12.10
2019-04-30T15:39:14.249Z,12.10
2019-04-30T15:41:43.616Z,12.30
2019-04-30T15:44:12.992Z,12.31
2019-04-30T15:46:42.669Z,12.31
2019-04-30T15:49:13.738Z,12.29
2019-04-30T15:51:43.206Z,12.31
2019-04-30T15:54:12.520Z,12.30
2019-04-30T15:56:43.785Z,12.13
2019-04-30T15:59:14.571Z,12.06
2019-04-30T16:02:00.646Z,11.90
2019-04-30T16:04:49.201Z,11.98
2019-04-30T16:07:19.596Z,12.07
2019-04-30T16:09:53.429Z,12.03
2019-04-30T16:12:24.369Z,12.02
2019-04-30T16:14:53.715Z,12.02
2019-04-30T16:17:25.046Z,12.07
2019-04-30T16:19:54.629Z,12.04
2019-04-30T16:22:24.105Z,11.88
2019-04-30T16:24:54.718Z,11.86
2019-04-30T16:27:24.226Z,11.86
2019-04-30T16:29:53.544Z,11.75
2019-04-30T16:32:23.898Z,11.79
2019-04-30T16:34:53.250Z,11.85
2019-04-30T16:37:22.610Z,11.77
2019-04-30T16:39:52.029Z,11.70
2019-04-30T16:42:23.024Z,11.77
2019-04-30T16:44:52.418Z,11.69
2019-04-30T16:47:21.735Z,11.60
2019-04-30T16:49:51.095Z,11.63
2019-04-30T16:52:20.394Z,11.54
2019-04-30T16:54:49.884Z,11.57
2019-04-30T16:57:19.398Z,11.45
2019-04-30T16:59:49.951Z,11.40
2019-04-30T17:02:21.618Z,11.39
2019-04-30T17:04:53.562Z,11.40
2019-04-30T17:07:28.848Z,11.36
2019-04-30T17:10:00.054Z,11.39
2019-04-30T17:12:31.019Z,11.29
2019-04-30T17:15:14.323Z,11.33
2019-04-30T17:17:43.629Z,11.18
2019-04-30T17:20:13.522Z,11.16
2019-04-30T17:22:42.930Z,11.14
2019-04-30T17:25:13.372Z,11.14
2019-04-30T17:27:42.680Z,11.13
2019-04-30T17:30:12.633Z,11.18
2019-04-30T17:32:41.972Z,11.14
2019-04-30T17:35:11.862Z,11.09
2019-04-30T17:37:41.175Z,11.13
2019-04-30T17:40:10.734Z,11.10
2019-04-30T17:42:40.084Z,11.08
2019-04-30T17:45:10.018Z,11.14
2019-04-30T17:47:39.322Z,10.99
2019-04-30T17:50:09.490Z,10.90
2019-04-30T17:52:38.767Z,10.89
2019-04-30T17:55:09.732Z,10.92
2019-04-30T17:57:40.481Z,10.87
2019-04-30T18:00:18.795Z,10.91
2019-04-30T18:02:43.976Z,10.85
2019-04-30T18:05:13.380Z,10.83
2019-04-30T18:07:42.880Z,10.80
2019-04-30T18:10:14.430Z,10.77
2019-04-30T18:12:43.888Z,10.79
2019-04-30T18:15:15.657Z,10.79
2019-04-30T18:17:46.585Z,10.79
2019-04-30T18:20:20.280Z,10.75
2019-04-30T18:22:54.074Z,10.71
2019-04-30T18:25:41.261Z,10.62
2019-04-30T18:28:10.859Z,10.67
2019-04-30T18:30:43.510Z,10.65
2019-04-30T18:33:12.605Z,10.60
2019-04-30T18:35:42.002Z,10.58
2019-04-30T18:38:11.448Z,10.55
2019-04-30T18:40:41.053Z,10.57
2019-04-30T18:43:10.425Z,10.59
2019-04-30T18:45:39.869Z,10.59
2019-04-30T18:48:09.821Z,10.57
2019-04-30T18:50:40.369Z,10.56
2019-04-30T18:53:18.552Z,10.54
2019-04-30T18:55:50.539Z,10.48
2019-04-30T18:58:19.962Z,10.44
2019-04-30T19:00:49.687Z,10.45
2019-04-30T19:03:21.797Z,10.42
2019-04-30T19:05:52.020Z,10.42
2019-04-30T19:08:22.984Z,10.42
2019-04-30T19:10:58.874Z,10.47
2019-04-30T19:13:29.955Z,10.40
2019-04-30T19:16:18.492Z,10.39
2019-04-30T19:18:33.658Z,10.41
2019-04-30T19:21:04.785Z,10.36
2019-04-30T19:23:34.155Z,10.32
2019-04-30T19:26:03.461Z,10.33
2019-04-30T19:28:32.940Z,10.33
2019-04-30T19:31:02.243Z,10.40
2019-04-30T19:33:31.597Z,10.36
2019-04-30T19:36:00.909Z,10.33
2019-04-30T19:38:30.321Z,10.32
2019-04-30T19:40:59.680Z,10.38
2019-04-30T19:43:29.124Z,10.35
2019-04-30T19:45:59.328Z,10.28
2019-04-30T19:48:28.970Z,10.26
2019-04-30T19:50:58.747Z,10.23
2019-04-30T19:53:30.233Z,10.24
2019-04-30T19:55:59.409Z,10.24
2019-04-30T19:58:44.969Z,10.23
2019-04-30T20:01:00.274Z,10.24
2019-04-30T20:03:29.560Z,10.22
2019-04-30T20:06:00.565Z,10.25
2019-04-30T20:08:29.851Z,10.21
2019-04-30T20:10:59.446Z,10.27
2019-04-30T20:13:36.713Z,10.21
2019-04-30T20:15:59.799Z,10.24
2019-04-30T20:18:29.326Z,10.24
2019-04-30T20:21:01.182Z,10.25
2019-04-30T20:23:31.870Z,10.23
2019-04-30T20:26:02.749Z,10.21
2019-04-30T20:28:39.229Z,10.21
2019-04-30T20:31:03.156Z,10.20
2019-04-30T20:33:32.444Z,10.20
2019-04-30T20:36:01.924Z,10.22
2019-04-30T20:38:39.796Z,10.22
2019-04-30T20:41:10.703Z,10.20
2019-04-30T20:43:40.033Z,10.14
2019-04-30T20:46:09.470Z,10.17
2019-04-30T20:48:39.313Z,10.19
2019-04-30T20:51:09.923Z,10.15
2019-04-30T20:53:40.969Z,10.12
2019-04-30T20:56:11.344Z,10.12
2019-04-30T20:58:54.275Z,10.08
2019-04-30T21:01:11.761Z,10.10
2019-04-30T21:03:41.040Z,10.10
2019-04-30T21:06:10.357Z,10.10
2019-04-30T21:08:39.673Z,10.06
2019-04-30T21:11:09.426Z,10.02
2019-04-30T21:13:39.302Z,9.98
2019-04-30T21:16:09.082Z,10.02
2019-04-30T21:18:39.109Z,9.94
2019-04-30T21:21:08.564Z,9.97
2019-04-30T21:23:39.228Z,9.92
2019-04-30T21:26:08.668Z,9.92
2019-04-30T21:28:39.307Z,9.90
2019-04-30T21:31:28.391Z,9.89
2019-04-30T21:34:00.583Z,9.88
2019-04-30T21:36:30.078Z,9.88
2019-04-30T21:38:59.356Z,9.88
2019-04-30T21:41:29.793Z,9.91
2019-04-30T21:43:59.194Z,9.88
2019-04-30T21:46:29.331Z,9.82
2019-04-30T21:48:59.829Z,9.82
2019-04-30T21:51:29.721Z,9.80
2019-04-30T21:53:59.076Z,9.84
2019-04-30T21:56:28.448Z,9.85
2019-04-30T21:58:57.715Z,9.85
2019-04-30T22:01:27.163Z,9.85
2019-04-30T22:03:56.804Z,9.79
2019-04-30T22:06:26.183Z,9.80
2019-04-30T22:08:55.455Z,9.79
2019-04-30T22:11:24.757Z,9.82
2019-04-30T22:13:54.028Z,9.85
2019-04-30T22:16:24.418Z,9.82
2019-04-30T22:18:53.696Z,9.80
2019-04-30T22:21:23.343Z,9.81
2019-04-30T22:23:52.631Z,9.85
2019-04-30T22:26:21.932Z,9.87
2019-04-30T22:28:52.171Z,9.83
2019-04-30T22:31:21.471Z,9.81
2019-04-30T22:33:50.740Z,9.81
2019-04-30T22:36:29.020Z,9.82
2019-04-30T22:39:00.049Z,9.80
2019-04-30T22:41:31.079Z,9.83
2019-04-30T22:44:00.378Z,9.80
2019-04-30T22:46:29.844Z,9.85
2019-04-30T22:48:59.236Z,9.83
2019-04-30T22:51:28.793Z,9.80
2019-04-30T22:53:58.095Z,9.76
2019-04-30T22:56:27.383Z,9.75
2019-04-30T22:58:56.708Z,9.75
2019-04-30T23:01:27.631Z,9.73
2019-04-30T23:04:01.693Z,9.68
2019-04-30T23:06:31.129Z,9.70
2019-04-30T23:09:00.423Z,9.64
2019-04-30T23:11:31.238Z,9.62
2019-04-30T23:14:01.792Z,9.58
2019-04-30T23:16:31.197Z,9.58
2019-04-30T23:19:02.028Z,9.58
2019-04-30T23:21:32.380Z,9.54
2019-04-30T23:24:01.723Z,9.49
2019-04-30T23:26:31.161Z,9.46
2019-04-30T23:29:00.556Z,9.45
2019-04-30T23:31:29.831Z,9.43
2019-04-30T23:33:59.185Z,9.39
2019-04-30T23:36:28.455Z,9.37
2019-04-30T23:38:57.804Z,9.32
2019-04-30T23:41:27.157Z,9.33
2019-04-30T23:43:56.461Z,9.24
2019-04-30T23:46:25.763Z,9.21
2019-04-30T23:48:55.066Z,9.11
2019-04-30T23:51:24.363Z,9.15
2019-04-30T23:53:53.831Z,9.09
2019-04-30T23:56:23.265Z,9.03
2019-04-30T23:58:52.568Z,9.00
